sensor_id;sensor_type;location;lat;lon;timestamp;P1;durP1;ratioP1;P2;durP2;ratioP2
37955;SDS011;23776;51.592;7.180;2024-01-25T00:02:04;47.22;;;6.45;;
37955;SDS011;23776;51.592;7.180;2024-01-25T00:04:29;37.40;;;7.20;;
37955;SDS011;23776;51.592;7.180;2024-01-25T00:06:55;36.45;;;8.10;;
37955;SDS011;23776;51.592;7.180;2024-01-25T00:09:20;52.38;;;7.60;;
37955;SDS011;23776;51.592;7.180;2024-01-25T00:11:46;52.15;;;6.38;;
37955;SDS011;23776;51.592;7.180;2024-01-25T00:14:12;46.95;;;7.53;;
37955;SDS011;23776;51.592;7.180;2024-01-25T00:16:40;45.15;;;7.15;;
37955;SDS011;23776;51.592;7.180;2024-01-25T00:19:06;59.05;;;6.78;;
37955;SDS011;23776;51.592;7.180;2024-01-25T00:21:32;45.55;;;6.88;;
37955;SDS011;23776;51.592;7.180;2024-01-25T00:23:58;46.10;;;6.72;;
37955;SDS011;23776;51.592;7.180;2024-01-25T00:26:23;59.78;;;7.03;;
37955;SDS011;23776;51.592;7.180;2024-01-25T00:28:49;39.65;;;7.20;;
37955;SDS011;23776;51.592;7.180;2024-01-25T00:31:14;49.72;;;7.32;;
37955;SDS011;23776;51.592;7.180;2024-01-25T00:33:40;38.38;;;6.30;;
37955;SDS011;23776;51.592;7.180;2024-01-25T00:36:05;58.13;;;7.10;;
37955;SDS011;23776;51.592;7.180;2024-01-25T00:38:31;43.78;;;6.47;;
37955;SDS011;23776;51.592;7.180;2024-01-25T00:40:57;55.72;;;6.88;;
37955;SDS011;23776;51.592;7.180;2024-01-25T00:43:23;52.65;;;8.70;;
37955;SDS011;23776;51.592;7.180;2024-01-25T00:45:49;42.28;;;7.40;;
37955;SDS011;23776;51.592;7.180;2024-01-25T00:48:15;51.78;;;6.95;;
37955;SDS011;23776;51.592;7.180;2024-01-25T00:50:41;45.28;;;7.15;;
37955;SDS011;23776;51.592;7.180;2024-01-25T00:53:07;41.33;;;6.68;;
37955;SDS011;23776;51.592;7.180;2024-01-25T00:55:33;42.60;;;6.85;;
37955;SDS011;23776;51.592;7.180;2024-01-25T00:57:58;46.38;;;7.03;;
37955;SDS011;23776;51.592;7.180;2024-01-25T01:00:24;43.40;;;7.65;;
37955;SDS011;23776;51.592;7.180;2024-01-25T01:02:50;45.53;;;7.18;;
37955;SDS011;23776;51.592;7.180;2024-01-25T01:05:19;60.67;;;7.32;;
37955;SDS011;23776;51.592;7.180;2024-01-25T01:07:45;59.70;;;7.63;;
37955;SDS011;23776;51.592;7.180;2024-01-25T01:10:11;38.33;;;6.50;;
37955;SDS011;23776;51.592;7.180;2024-01-25T01:12:36;60.45;;;7.75;;
37955;SDS011;23776;51.592;7.180;2024-01-25T01:15:02;40.88;;;7.72;;
37955;SDS011;23776;51.592;7.180;2024-01-25T01:17:28;49.35;;;5.82;;
37955;SDS011;23776;51.592;7.180;2024-01-25T01:19:54;48.30;;;7.45;;
37955;SDS011;23776;51.592;7.180;2024-01-25T01:22:19;50.22;;;7.18;;
37955;SDS011;23776;51.592;7.180;2024-01-25T01:24:45;40.60;;;6.18;;
37955;SDS011;23776;51.592;7.180;2024-01-25T01:27:10;62.95;;;7.25;;
37955;SDS011;23776;51.592;7.180;2024-01-25T01:29:36;51.17;;;7.13;;
37955;SDS011;23776;51.592;7.180;2024-01-25T01:32:02;32.88;;;6.00;;
37955;SDS011;23776;51.592;7.180;2024-01-25T01:34:27;45.83;;;6.47;;
37955;SDS011;23776;51.592;7.180;2024-01-25T01:36:53;44.70;;;7.35;;
37955;SDS011;23776;51.592;7.180;2024-01-25T01:39:18;52.67;;;8.73;;
37955;SDS011;23776;51.592;7.180;2024-01-25T01:41:48;55.40;;;7.15;;
37955;SDS011;23776;51.592;7.180;2024-01-25T01:44:14;45.70;;;6.07;;
37955;SDS011;23776;51.592;7.180;2024-01-25T01:46:39;45.70;;;6.45;;
37955;SDS011;23776;51.592;7.180;2024-01-25T01:49:06;46.08;;;6.22;;
37955;SDS011;23776;51.592;7.180;2024-01-25T01:51:34;46.95;;;6.18;;
37955;SDS011;23776;51.592;7.180;2024-01-25T01:54:03;42.15;;;5.38;;
37955;SDS011;23776;51.592;7.180;2024-01-25T01:56:32;43.28;;;6.85;;
37955;SDS011;23776;51.592;7.180;2024-01-25T01:58:59;43.88;;;5.78;;
37955;SDS011;23776;51.592;7.180;2024-01-25T02:01:25;45.20;;;7.10;;
37955;SDS011;23776;51.592;7.180;2024-01-25T02:03:51;50.83;;;6.15;;
37955;SDS011;23776;51.592;7.180;2024-01-25T02:06:18;36.65;;;6.13;;
37955;SDS011;23776;51.592;7.180;2024-01-25T02:08:44;41.20;;;6.40;;
37955;SDS011;23776;51.592;7.180;2024-01-25T02:11:11;46.10;;;6.75;;
37955;SDS011;23776;51.592;7.180;2024-01-25T02:13:37;50.22;;;7.25;;
37955;SDS011;23776;51.592;7.180;2024-01-25T02:16:03;32.63;;;5.70;;
37955;SDS011;23776;51.592;7.180;2024-01-25T02:18:30;36.63;;;6.70;;
37955;SDS011;23776;51.592;7.180;2024-01-25T02:20:56;38.22;;;5.50;;
37955;SDS011;23776;51.592;7.180;2024-01-25T02:23:21;39.38;;;5.80;;
37955;SDS011;23776;51.592;7.180;2024-01-25T02:25:47;28.27;;;5.75;;
37955;SDS011;23776;51.592;7.180;2024-01-25T02:28:12;59.92;;;7.25;;
37955;SDS011;23776;51.592;7.180;2024-01-25T02:30:38;37.38;;;5.00;;
37955;SDS011;23776;51.592;7.180;2024-01-25T02:33:04;41.22;;;6.55;;
37955;SDS011;23776;51.592;7.180;2024-01-25T02:35:29;48.25;;;7.53;;
37955;SDS011;23776;51.592;7.180;2024-01-25T02:37:55;33.28;;;5.95;;
37955;SDS011;23776;51.592;7.180;2024-01-25T02:40:20;47.90;;;6.32;;
37955;SDS011;23776;51.592;7.180;2024-01-25T02:42:46;44.88;;;6.15;;
37955;SDS011;23776;51.592;7.180;2024-01-25T02:45:11;38.95;;;5.88;;
37955;SDS011;23776;51.592;7.180;2024-01-25T02:47:37;56.33;;;8.40;;
37955;SDS011;23776;51.592;7.180;2024-01-25T02:50:03;53.22;;;7.75;;
37955;SDS011;23776;51.592;7.180;2024-01-25T02:52:28;39.10;;;5.70;;
37955;SDS011;23776;51.592;7.180;2024-01-25T02:54:54;46.33;;;6.10;;
37955;SDS011;23776;51.592;7.180;2024-01-25T02:57:20;51.55;;;6.90;;
37955;SDS011;23776;51.592;7.180;2024-01-25T02:59:45;41.95;;;6.20;;
37955;SDS011;23776;51.592;7.180;2024-01-25T03:02:12;51.83;;;7.00;;
37955;SDS011;23776;51.592;7.180;2024-01-25T03:04:37;44.78;;;6.78;;
37955;SDS011;23776;51.592;7.180;2024-01-25T03:07:03;54.58;;;5.93;;
37955;SDS011;23776;51.592;7.180;2024-01-25T03:09:29;36.15;;;6.07;;
37955;SDS011;23776;51.592;7.180;2024-01-25T03:11:54;46.08;;;6.70;;
37955;SDS011;23776;51.592;7.180;2024-01-25T03:14:20;49.60;;;6.18;;
37955;SDS011;23776;51.592;7.180;2024-01-25T03:16:45;58.20;;;7.70;;
37955;SDS011;23776;51.592;7.180;2024-01-25T03:19:12;37.83;;;5.78;;
37955;SDS011;23776;51.592;7.180;2024-01-25T03:21:38;39.78;;;5.93;;
37955;SDS011;23776;51.592;7.180;2024-01-25T03:24:03;34.97;;;5.45;;
37955;SDS011;23776;51.592;7.180;2024-01-25T03:26:29;44.72;;;5.40;;
37955;SDS011;23776;51.592;7.180;2024-01-25T03:28:55;45.40;;;6.55;;
37955;SDS011;23776;51.592;7.180;2024-01-25T03:31:20;42.22;;;6.63;;
37955;SDS011;23776;51.592;7.180;2024-01-25T03:33:46;32.35;;;5.63;;
37955;SDS011;23776;51.592;7.180;2024-01-25T03:36:13;47.15;;;6.10;;
37955;SDS011;23776;51.592;7.180;2024-01-25T03:38:40;41.33;;;6.10;;
37955;SDS011;23776;51.592;7.180;2024-01-25T03:41:06;42.95;;;6.32;;
37955;SDS011;23776;51.592;7.180;2024-01-25T03:43:32;41.05;;;6.93;;
37955;SDS011;23776;51.592;7.180;2024-01-25T03:45:57;45.45;;;6.60;;
37955;SDS011;23776;51.592;7.180;2024-01-25T03:48:23;39.53;;;5.90;;
37955;SDS011;23776;51.592;7.180;2024-01-25T03:50:48;43.05;;;6.07;;
37955;SDS011;23776;51.592;7.180;2024-01-25T03:53:14;43.08;;;6.65;;
37955;SDS011;23776;51.592;7.180;2024-01-25T03:55:40;37.40;;;5.82;;
37955;SDS011;23776;51.592;7.180;2024-01-25T03:58:06;48.88;;;6.97;;
37955;SDS011;23776;51.592;7.180;2024-01-25T04:00:32;47.10;;;7.35;;
37955;SDS011;23776;51.592;7.180;2024-01-25T04:02:57;43.70;;;6.97;;
37955;SDS011;23776;51.592;7.180;2024-01-25T04:05:23;48.70;;;6.80;;
37955;SDS011;23776;51.592;7.180;2024-01-25T04:07:51;40.05;;;6.57;;
37955;SDS011;23776;51.592;7.180;2024-01-25T04:10:16;50.28;;;7.90;;
37955;SDS011;23776;51.592;7.180;2024-01-25T04:12:42;44.33;;;7.15;;
37955;SDS011;23776;51.592;7.180;2024-01-25T04:15:08;46.15;;;5.85;;
37955;SDS011;23776;51.592;7.180;2024-01-25T04:17:34;61.25;;;7.55;;
37955;SDS011;23776;51.592;7.180;2024-01-25T04:20:00;44.10;;;6.45;;
37955;SDS011;23776;51.592;7.180;2024-01-25T04:22:25;38.63;;;6.75;;
37955;SDS011;23776;51.592;7.180;2024-01-25T04:24:51;41.15;;;8.27;;
37955;SDS011;23776;51.592;7.180;2024-01-25T04:27:17;53.70;;;6.88;;
37955;SDS011;23776;51.592;7.180;2024-01-25T04:29:43;40.85;;;7.55;;
37955;SDS011;23776;51.592;7.180;2024-01-25T04:32:09;59.55;;;6.22;;
37955;SDS011;23776;51.592;7.180;2024-01-25T04:34:35;37.70;;;6.63;;
37955;SDS011;23776;51.592;7.180;2024-01-25T04:37:01;37.05;;;6.22;;
37955;SDS011;23776;51.592;7.180;2024-01-25T04:39:26;41.53;;;5.75;;
37955;SDS011;23776;51.592;7.180;2024-01-25T04:41:52;40.17;;;5.70;;
37955;SDS011;23776;51.592;7.180;2024-01-25T04:44:18;51.92;;;6.93;;
37955;SDS011;23776;51.592;7.180;2024-01-25T04:46:44;44.40;;;7.25;;
37955;SDS011;23776;51.592;7.180;2024-01-25T04:49:09;48.78;;;7.80;;
37955;SDS011;23776;51.592;7.180;2024-01-25T04:51:35;49.58;;;7.15;;
37955;SDS011;23776;51.592;7.180;2024-01-25T04:54:00;38.78;;;6.13;;
37955;SDS011;23776;51.592;7.180;2024-01-25T04:56:26;58.05;;;7.35;;
37955;SDS011;23776;51.592;7.180;2024-01-25T04:58:52;35.47;;;5.25;;
37955;SDS011;23776;51.592;7.180;2024-01-25T05:01:17;38.33;;;6.25;;
37955;SDS011;23776;51.592;7.180;2024-01-25T05:03:43;44.95;;;7.18;;
37955;SDS011;23776;51.592;7.180;2024-01-25T05:06:08;40.17;;;6.65;;
37955;SDS011;23776;51.592;7.180;2024-01-25T05:08:34;54.75;;;6.97;;
37955;SDS011;23776;51.592;7.180;2024-01-25T05:10:59;40.95;;;6.32;;
37955;SDS011;23776;51.592;7.180;2024-01-25T05:13:25;38.47;;;5.90;;
37955;SDS011;23776;51.592;7.180;2024-01-25T05:15:51;48.95;;;6.63;;
37955;SDS011;23776;51.592;7.180;2024-01-25T05:18:16;46.40;;;6.55;;
37955;SDS011;23776;51.592;7.180;2024-01-25T05:20:42;44.53;;;7.70;;
37955;SDS011;23776;51.592;7.180;2024-01-25T05:23:07;44.85;;;7.32;;
37955;SDS011;23776;51.592;7.180;2024-01-25T05:25:33;57.75;;;7.15;;
37955;SDS011;23776;51.592;7.180;2024-01-25T05:27:58;50.50;;;7.10;;
37955;SDS011;23776;51.592;7.180;2024-01-25T05:30:24;33.85;;;6.60;;
37955;SDS011;23776;51.592;7.180;2024-01-25T05:32:50;44.42;;;6.53;;
37955;SDS011;23776;51.592;7.180;2024-01-25T05:35:18;45.08;;;6.78;;
37955;SDS011;23776;51.592;7.180;2024-01-25T05:37:44;48.78;;;5.75;;
37955;SDS011;23776;51.592;7.180;2024-01-25T05:40:09;35.25;;;6.95;;
37955;SDS011;23776;51.592;7.180;2024-01-25T05:42:35;44.63;;;5.72;;
37955;SDS011;23776;51.592;7.180;2024-01-25T05:45:02;48.15;;;6.32;;
37955;SDS011;23776;51.592;7.180;2024-01-25T05:47:28;44.17;;;6.97;;
37955;SDS011;23776;51.592;7.180;2024-01-25T05:49:54;42.15;;;5.47;;
37955;SDS011;23776;51.592;7.180;2024-01-25T05:52:20;50.67;;;6.93;;
37955;SDS011;23776;51.592;7.180;2024-01-25T05:54:47;42.28;;;6.55;;
37955;SDS011;23776;51.592;7.180;2024-01-25T05:57:12;51.28;;;8.07;;
37955;SDS011;23776;51.592;7.180;2024-01-25T05:59:38;32.30;;;5.78;;
37955;SDS011;23776;51.592;7.180;2024-01-25T06:02:04;49.80;;;6.75;;
37955;SDS011;23776;51.592;7.180;2024-01-25T06:04:30;38.85;;;6.70;;
37955;SDS011;23776;51.592;7.180;2024-01-25T06:06:56;38.90;;;5.57;;
37955;SDS011;23776;51.592;7.180;2024-01-25T06:09:22;43.70;;;6.47;;
37955;SDS011;23776;51.592;7.180;2024-01-25T06:11:49;44.00;;;6.50;;
37955;SDS011;23776;51.592;7.180;2024-01-25T06:14:15;37.67;;;5.75;;
37955;SDS011;23776;51.592;7.180;2024-01-25T06:16:40;59.78;;;7.07;;
37955;SDS011;23776;51.592;7.180;2024-01-25T06:19:06;58.85;;;6.78;;
37955;SDS011;23776;51.592;7.180;2024-01-25T06:21:32;40.42;;;6.22;;
37955;SDS011;23776;51.592;7.180;2024-01-25T06:24:00;43.63;;;6.88;;
37955;SDS011;23776;51.592;7.180;2024-01-25T06:26:29;41.35;;;6.43;;
37955;SDS011;23776;51.592;7.180;2024-01-25T06:28:55;52.45;;;6.15;;
37955;SDS011;23776;51.592;7.180;2024-01-25T06:31:22;40.22;;;6.70;;
37955;SDS011;23776;51.592;7.180;2024-01-25T06:33:50;43.65;;;6.40;;
37955;SDS011;23776;51.592;7.180;2024-01-25T06:36:17;41.47;;;7.40;;
37955;SDS011;23776;51.592;7.180;2024-01-25T06:38:43;37.83;;;6.68;;
37955;SDS011;23776;51.592;7.180;2024-01-25T06:41:09;35.33;;;6.47;;
37955;SDS011;23776;51.592;7.180;2024-01-25T06:43:34;37.05;;;6.88;;
37955;SDS011;23776;51.592;7.180;2024-01-25T06:46:00;42.50;;;6.97;;
37955;SDS011;23776;51.592;7.180;2024-01-25T06:48:26;42.42;;;7.10;;
37955;SDS011;23776;51.592;7.180;2024-01-25T06:50:51;53.08;;;7.30;;
37955;SDS011;23776;51.592;7.180;2024-01-25T06:53:17;46.00;;;6.88;;
37955;SDS011;23776;51.592;7.180;2024-01-25T06:55:43;33.70;;;5.85;;
37955;SDS011;23776;51.592;7.180;2024-01-25T06:58:09;46.58;;;6.88;;
37955;SDS011;23776;51.592;7.180;2024-01-25T07:00:34;55.42;;;7.68;;
37955;SDS011;23776;51.592;7.180;2024-01-25T07:03:00;39.20;;;7.07;;
37955;SDS011;23776;51.592;7.180;2024-01-25T07:05:25;45.13;;;6.55;;
37955;SDS011;23776;51.592;7.180;2024-01-25T07:07:51;59.45;;;8.10;;
37955;SDS011;23776;51.592;7.180;2024-01-25T07:10:18;38.60;;;7.53;;
37955;SDS011;23776;51.592;7.180;2024-01-25T07:12:43;45.25;;;7.47;;
37955;SDS011;23776;51.592;7.180;2024-01-25T07:15:09;58.47;;;8.55;;
37955;SDS011;23776;51.592;7.180;2024-01-25T07:17:35;46.33;;;8.13;;
37955;SDS011;23776;51.592;7.180;2024-01-25T07:20:01;44.13;;;7.07;;
37955;SDS011;23776;51.592;7.180;2024-01-25T07:22:26;46.13;;;7.00;;
37955;SDS011;23776;51.592;7.180;2024-01-25T07:24:52;45.83;;;7.20;;
37955;SDS011;23776;51.592;7.180;2024-01-25T07:27:18;51.35;;;7.90;;
37955;SDS011;23776;51.592;7.180;2024-01-25T07:29:46;52.85;;;7.35;;
37955;SDS011;23776;51.592;7.180;2024-01-25T07:32:12;52.20;;;7.80;;
37955;SDS011;23776;51.592;7.180;2024-01-25T07:34:37;57.72;;;7.45;;
37955;SDS011;23776;51.592;7.180;2024-01-25T07:37:03;37.97;;;6.75;;
37955;SDS011;23776;51.592;7.180;2024-01-25T07:39:29;40.60;;;7.72;;
37955;SDS011;23776;51.592;7.180;2024-01-25T07:41:55;57.90;;;8.52;;
37955;SDS011;23776;51.592;7.180;2024-01-25T07:44:20;51.63;;;7.97;;
37955;SDS011;23776;51.592;7.180;2024-01-25T07:46:46;50.72;;;7.57;;
37955;SDS011;23776;51.592;7.180;2024-01-25T07:49:12;47.05;;;7.50;;
37955;SDS011;23776;51.592;7.180;2024-01-25T07:51:38;52.30;;;8.85;;
37955;SDS011;23776;51.592;7.180;2024-01-25T07:54:03;55.65;;;7.47;;
37955;SDS011;23776;51.592;7.180;2024-01-25T07:56:29;37.28;;;6.60;;
37955;SDS011;23776;51.592;7.180;2024-01-25T07:58:54;40.00;;;7.53;;
37955;SDS011;23776;51.592;7.180;2024-01-25T08:01:20;50.08;;;7.43;;
37955;SDS011;23776;51.592;7.180;2024-01-25T08:03:46;40.72;;;7.03;;
37955;SDS011;23776;51.592;7.180;2024-01-25T08:06:12;59.15;;;9.80;;
37955;SDS011;23776;51.592;7.180;2024-01-25T08:08:38;46.25;;;9.40;;
37955;SDS011;23776;51.592;7.180;2024-01-25T08:11:04;59.53;;;10.75;;
37955;SDS011;23776;51.592;7.180;2024-01-25T08:13:30;39.80;;;8.48;;
37955;SDS011;23776;51.592;7.180;2024-01-25T08:15:56;60.75;;;10.75;;
37955;SDS011;23776;51.592;7.180;2024-01-25T08:18:22;70.47;;;10.35;;
37955;SDS011;23776;51.592;7.180;2024-01-25T08:20:48;53.90;;;10.02;;
37955;SDS011;23776;51.592;7.180;2024-01-25T08:23:14;50.90;;;10.18;;
37955;SDS011;23776;51.592;7.180;2024-01-25T08:25:40;55.47;;;10.63;;
37955;SDS011;23776;51.592;7.180;2024-01-25T08:28:06;44.42;;;9.00;;
37955;SDS011;23776;51.592;7.180;2024-01-25T08:30:31;63.85;;;11.40;;
37955;SDS011;23776;51.592;7.180;2024-01-25T08:32:57;57.05;;;12.68;;
37955;SDS011;23776;51.592;7.180;2024-01-25T08:35:23;94.63;;;22.63;;
37955;SDS011;23776;51.592;7.180;2024-01-25T08:37:49;105.75;;;26.05;;
37955;SDS011;23776;51.592;7.180;2024-01-25T08:40:14;100.85;;;27.50;;
37955;SDS011;23776;51.592;7.180;2024-01-25T08:42:40;72.40;;;19.15;;
37955;SDS011;23776;51.592;7.180;2024-01-25T08:45:06;87.90;;;17.33;;
37955;SDS011;23776;51.592;7.180;2024-01-25T08:47:33;58.90;;;14.30;;
37955;SDS011;23776;51.592;7.180;2024-01-25T08:50:00;69.80;;;16.95;;
37955;SDS011;23776;51.592;7.180;2024-01-25T08:52:25;71.07;;;16.15;;
37955;SDS011;23776;51.592;7.180;2024-01-25T08:54:51;62.42;;;14.95;;
37955;SDS011;23776;51.592;7.180;2024-01-25T08:57:16;81.82;;;14.70;;
37955;SDS011;23776;51.592;7.180;2024-01-25T08:59:42;78.15;;;16.60;;
37955;SDS011;23776;51.592;7.180;2024-01-25T09:02:08;80.53;;;16.17;;
37955;SDS011;23776;51.592;7.180;2024-01-25T09:04:33;66.32;;;14.27;;
37955;SDS011;23776;51.592;7.180;2024-01-25T09:06:59;60.65;;;15.60;;
37955;SDS011;23776;51.592;7.180;2024-01-25T09:09:25;94.32;;;17.35;;
37955;SDS011;23776;51.592;7.180;2024-01-25T09:11:51;62.53;;;14.88;;
37955;SDS011;23776;51.592;7.180;2024-01-25T09:14:16;68.97;;;14.88;;
37955;SDS011;23776;51.592;7.180;2024-01-25T09:16:42;60.08;;;16.33;;
37955;SDS011;23776;51.592;7.180;2024-01-25T09:19:07;69.30;;;16.80;;
37955;SDS011;23776;51.592;7.180;2024-01-25T09:21:33;77.63;;;18.45;;
37955;SDS011;23776;51.592;7.180;2024-01-25T09:23:58;66.03;;;17.52;;
37955;SDS011;23776;51.592;7.180;2024-01-25T09:26:24;71.43;;;17.73;;
37955;SDS011;23776;51.592;7.180;2024-01-25T09:28:50;74.25;;;15.93;;
37955;SDS011;23776;51.592;7.180;2024-01-25T09:31:15;71.50;;;16.52;;
37955;SDS011;23776;51.592;7.180;2024-01-25T09:33:41;83.13;;;15.13;;
37955;SDS011;23776;51.592;7.180;2024-01-25T09:36:07;76.07;;;16.05;;
37955;SDS011;23776;51.592;7.180;2024-01-25T09:38:33;66.07;;;15.30;;
37955;SDS011;23776;51.592;7.180;2024-01-25T09:40:58;81.82;;;16.48;;
37955;SDS011;23776;51.592;7.180;2024-01-25T09:43:26;60.22;;;14.82;;
37955;SDS011;23776;51.592;7.180;2024-01-25T09:45:55;57.40;;;14.15;;
37955;SDS011;23776;51.592;7.180;2024-01-25T09:48:21;71.43;;;13.65;;
37955;SDS011;23776;51.592;7.180;2024-01-25T09:50:47;59.60;;;14.77;;
37955;SDS011;23776;51.592;7.180;2024-01-25T09:53:23;53.58;;;12.68;;
37955;SDS011;23776;51.592;7.180;2024-01-25T09:55:54;57.72;;;12.20;;
37955;SDS011;23776;51.592;7.180;2024-01-25T10:01:07;66.22;;;12.05;;
37955;SDS011;23776;51.592;7.180;2024-01-25T10:03:34;53.65;;;10.38;;
37955;SDS011;23776;51.592;7.180;2024-01-25T10:06:00;47.47;;;11.05;;
37955;SDS011;23776;51.592;7.180;2024-01-25T10:08:26;63.78;;;11.02;;
37955;SDS011;23776;51.592;7.180;2024-01-25T10:10:51;53.35;;;12.55;;
37955;SDS011;23776;51.592;7.180;2024-01-25T10:13:18;54.72;;;10.98;;
37955;SDS011;23776;51.592;7.180;2024-01-25T10:15:44;55.47;;;11.88;;
37955;SDS011;23776;51.592;7.180;2024-01-25T10:18:12;60.72;;;10.93;;
37955;SDS011;23776;51.592;7.180;2024-01-25T10:20:39;57.22;;;11.48;;
37955;SDS011;23776;51.592;7.180;2024-01-25T10:23:05;46.97;;;11.75;;
37955;SDS011;23776;51.592;7.180;2024-01-25T10:25:33;51.03;;;11.40;;
37955;SDS011;23776;51.592;7.180;2024-01-25T10:27:59;60.42;;;11.15;;
37955;SDS011;23776;51.592;7.180;2024-01-25T10:30:25;60.35;;;12.10;;
37955;SDS011;23776;51.592;7.180;2024-01-25T10:32:52;64.95;;;11.75;;
37955;SDS011;23776;51.592;7.180;2024-01-25T10:35:19;46.80;;;11.10;;
37955;SDS011;23776;51.592;7.180;2024-01-25T10:37:46;44.70;;;11.48;;
37955;SDS011;23776;51.592;7.180;2024-01-25T10:40:11;50.60;;;10.63;;
37955;SDS011;23776;51.592;7.180;2024-01-25T10:42:38;57.15;;;12.40;;
37955;SDS011;23776;51.592;7.180;2024-01-25T10:45:04;40.38;;;11.52;;
37955;SDS011;23776;51.592;7.180;2024-01-25T10:47:30;54.10;;;12.73;;
37955;SDS011;23776;51.592;7.180;2024-01-25T10:50:00;58.95;;;11.98;;
37955;SDS011;23776;51.592;7.180;2024-01-25T10:52:27;63.47;;;11.93;;
37955;SDS011;23776;51.592;7.180;2024-01-25T10:54:53;63.78;;;12.77;;
37955;SDS011;23776;51.592;7.180;2024-01-25T10:57:19;54.35;;;12.68;;
37955;SDS011;23776;51.592;7.180;2024-01-25T10:59:45;54.80;;;12.68;;
37955;SDS011;23776;51.592;7.180;2024-01-25T11:02:11;55.20;;;13.65;;
37955;SDS011;23776;51.592;7.180;2024-01-25T11:04:37;59.35;;;13.02;;
37955;SDS011;23776;51.592;7.180;2024-01-25T11:07:06;58.85;;;12.52;;
37955;SDS011;23776;51.592;7.180;2024-01-25T11:09:36;64.65;;;13.00;;
37955;SDS011;23776;51.592;7.180;2024-01-25T11:12:10;54.45;;;12.02;;
37955;SDS011;23776;51.592;7.180;2024-01-25T11:14:38;56.38;;;12.02;;
37955;SDS011;23776;51.592;7.180;2024-01-25T11:17:19;52.47;;;11.35;;
37955;SDS011;23776;51.592;7.180;2024-01-25T11:19:47;50.75;;;11.90;;
37955;SDS011;23776;51.592;7.180;2024-01-25T11:22:15;58.00;;;12.90;;
37955;SDS011;23776;51.592;7.180;2024-01-25T11:24:40;60.13;;;13.00;;
37955;SDS011;23776;51.592;7.180;2024-01-25T11:27:07;62.03;;;13.30;;
37955;SDS011;23776;51.592;7.180;2024-01-25T11:29:35;58.83;;;13.32;;
37955;SDS011;23776;51.592;7.180;2024-01-25T11:32:01;66.70;;;13.57;;
37955;SDS011;23776;51.592;7.180;2024-01-25T11:34:29;58.15;;;13.95;;
37955;SDS011;23776;51.592;7.180;2024-01-25T11:36:56;41.22;;;11.85;;
37955;SDS011;23776;51.592;7.180;2024-01-25T11:39:22;78.88;;;16.13;;
37955;SDS011;23776;51.592;7.180;2024-01-25T11:41:50;65.47;;;13.88;;
37955;SDS011;23776;51.592;7.180;2024-01-25T11:44:16;56.97;;;12.73;;
37955;SDS011;23776;51.592;7.180;2024-01-25T11:46:42;70.75;;;13.65;;
37955;SDS011;23776;51.592;7.180;2024-01-25T11:49:08;70.43;;;14.07;;
37955;SDS011;23776;51.592;7.180;2024-01-25T11:51:33;60.08;;;12.18;;
37955;SDS011;23776;51.592;7.180;2024-01-25T11:53:59;48.70;;;12.52;;
37955;SDS011;23776;51.592;7.180;2024-01-25T11:56:28;55.45;;;12.85;;
37955;SDS011;23776;51.592;7.180;2024-01-25T11:58:56;56.42;;;12.23;;
37955;SDS011;23776;51.592;7.180;2024-01-25T12:01:23;61.85;;;13.90;;
37955;SDS011;23776;51.592;7.180;2024-01-25T12:03:50;59.30;;;12.65;;
37955;SDS011;23776;51.592;7.180;2024-01-25T12:06:16;61.95;;;13.27;;
37955;SDS011;23776;51.592;7.180;2024-01-25T12:08:44;56.95;;;12.77;;
37955;SDS011;23776;51.592;7.180;2024-01-25T12:11:11;67.78;;;13.73;;
37955;SDS011;23776;51.592;7.180;2024-01-25T12:13:40;54.47;;;10.82;;
37955;SDS011;23776;51.592;7.180;2024-01-25T12:16:08;55.63;;;11.88;;
37955;SDS011;23776;51.592;7.180;2024-01-25T12:18:34;60.42;;;11.43;;
37955;SDS011;23776;51.592;7.180;2024-01-25T12:21:01;57.58;;;11.32;;
37955;SDS011;23776;51.592;7.180;2024-01-25T12:23:32;56.33;;;11.05;;
37955;SDS011;23776;51.592;7.180;2024-01-25T12:25:59;54.58;;;11.65;;
37955;SDS011;23776;51.592;7.180;2024-01-25T12:28:26;47.30;;;11.23;;
37955;SDS011;23776;51.592;7.180;2024-01-25T12:30:53;47.17;;;11.07;;
37955;SDS011;23776;51.592;7.180;2024-01-25T12:33:19;47.53;;;10.20;;
37955;SDS011;23776;51.592;7.180;2024-01-25T12:35:45;50.25;;;10.73;;
37955;SDS011;23776;51.592;7.180;2024-01-25T12:38:11;50.55;;;10.82;;
37955;SDS011;23776;51.592;7.180;2024-01-25T12:40:36;49.88;;;11.77;;
37955;SDS011;23776;51.592;7.180;2024-01-25T12:43:02;47.65;;;11.52;;
37955;SDS011;23776;51.592;7.180;2024-01-25T12:45:28;56.78;;;12.02;;
37955;SDS011;23776;51.592;7.180;2024-01-25T12:47:53;50.42;;;11.88;;
37955;SDS011;23776;51.592;7.180;2024-01-25T12:50:19;65.55;;;12.38;;
37955;SDS011;23776;51.592;7.180;2024-01-25T12:52:45;59.60;;;11.98;;
37955;SDS011;23776;51.592;7.180;2024-01-25T12:55:11;52.67;;;12.02;;
37955;SDS011;23776;51.592;7.180;2024-01-25T12:57:37;52.40;;;12.23;;
37955;SDS011;23776;51.592;7.180;2024-01-25T13:00:03;54.53;;;13.68;;
37955;SDS011;23776;51.592;7.180;2024-01-25T13:02:29;53.25;;;12.10;;
37955;SDS011;23776;51.592;7.180;2024-01-25T13:04:55;58.85;;;13.02;;
37955;SDS011;23776;51.592;7.180;2024-01-25T13:07:20;59.92;;;11.93;;
37955;SDS011;23776;51.592;7.180;2024-01-25T13:09:46;46.17;;;11.52;;
37955;SDS011;23776;51.592;7.180;2024-01-25T13:12:11;61.22;;;12.90;;
37955;SDS011;23776;51.592;7.180;2024-01-25T13:14:37;41.72;;;9.35;;
37955;SDS011;23776;51.592;7.180;2024-01-25T13:17:03;40.92;;;8.18;;
37955;SDS011;23776;51.592;7.180;2024-01-25T13:19:29;38.78;;;8.35;;
37955;SDS011;23776;51.592;7.180;2024-01-25T13:21:55;37.88;;;8.15;;
37955;SDS011;23776;51.592;7.180;2024-01-25T13:24:20;41.85;;;8.43;;
37955;SDS011;23776;51.592;7.180;2024-01-25T13:26:46;46.15;;;7.63;;
37955;SDS011;23776;51.592;7.180;2024-01-25T13:29:11;49.78;;;9.23;;
37955;SDS011;23776;51.592;7.180;2024-01-25T13:31:38;54.17;;;8.98;;
37955;SDS011;23776;51.592;7.180;2024-01-25T13:34:05;45.08;;;8.65;;
37955;SDS011;23776;51.592;7.180;2024-01-25T13:36:30;48.25;;;9.23;;
37955;SDS011;23776;51.592;7.180;2024-01-25T13:38:56;43.03;;;10.05;;
37955;SDS011;23776;51.592;7.180;2024-01-25T13:41:21;49.35;;;9.70;;
37955;SDS011;23776;51.592;7.180;2024-01-25T13:43:47;42.63;;;9.00;;
37955;SDS011;23776;51.592;7.180;2024-01-25T13:46:12;41.67;;;8.68;;
37955;SDS011;23776;51.592;7.180;2024-01-25T13:48:38;55.28;;;9.75;;
37955;SDS011;23776;51.592;7.180;2024-01-25T13:51:03;43.13;;;9.52;;
37955;SDS011;23776;51.592;7.180;2024-01-25T13:53:29;48.00;;;9.82;;
37955;SDS011;23776;51.592;7.180;2024-01-25T13:55:55;50.58;;;8.52;;
37955;SDS011;23776;51.592;7.180;2024-01-25T13:58:20;50.05;;;8.95;;
37955;SDS011;23776;51.592;7.180;2024-01-25T14:00:46;44.13;;;8.63;;
37955;SDS011;23776;51.592;7.180;2024-01-25T14:03:11;48.13;;;8.55;;
37955;SDS011;23776;51.592;7.180;2024-01-25T14:05:39;47.60;;;8.35;;
37955;SDS011;23776;51.592;7.180;2024-01-25T14:08:04;48.20;;;9.05;;
37955;SDS011;23776;51.592;7.180;2024-01-25T14:10:30;50.85;;;8.23;;
37955;SDS011;23776;51.592;7.180;2024-01-25T14:12:57;53.85;;;8.48;;
37955;SDS011;23776;51.592;7.180;2024-01-25T14:15:23;45.25;;;9.07;;
37955;SDS011;23776;51.592;7.180;2024-01-25T14:17:48;54.03;;;10.27;;
37955;SDS011;23776;51.592;7.180;2024-01-25T14:20:14;51.08;;;9.00;;
37955;SDS011;23776;51.592;7.180;2024-01-25T14:22:39;46.20;;;8.35;;
37955;SDS011;23776;51.592;7.180;2024-01-25T14:25:05;53.60;;;10.02;;
37955;SDS011;23776;51.592;7.180;2024-01-25T14:27:31;63.25;;;12.15;;